Time;durP1;ratioP1;P1;durP2;ratioP2;P2;SDS_P1;SDS_P2;PMS_P1;PMS_P2;Temp;Humidity;BMP_temperature;BMP_pressure;BME280_temperature;BME280_humidity;BME280_pressure;Samples;Min_cycle;Max_cycle;Signal;HPM_P1;HPM_P2
2021/05/14 00:01:33;;;;;;;2.78;1.85;;;;;;;;;;4958511;28;20034;-81
2021/05/14 00:03:59;;;;;;;3.00;1.80;;;;;;;;;;4978648;28;20461;-81
2021/05/14 00:06:24;;;;;;;2.90;1.77;;;;;;;;;;4962828;28;20034;-81
2021/05/14 00:08:50;;;;;;;3.95;1.83;;;;;;;;;;4948196;28;20466;-81
2021/05/14 00:11:15;;;;;;;3.30;1.58;;;;;;;;;;4942996;28;20416;-81
2021/05/14 00:13:41;;;;;;;3.88;1.70;;;;;;;;;;4942813;28;20123;-81
2021/05/14 00:16:08;;;;;;;4.32;2.30;;;;;;;;;;4943244;28;20061;-81
2021/05/14 00:18:34;;;;;;;3.63;1.52;;;;;;;;;;4943737;28;20497;-81
2021/05/14 00:20:59;;;;;;;3.25;1.52;;;;;;;;;;4960049;28;20042;-81
2021/05/14 00:23:25;;;;;;;4.05;1.58;;;;;;;;;;4961684;28;20049;-81
2021/05/14 00:25:50;;;;;;;3.45;1.92;;;;;;;;;;4993412;28;20054;-81
2021/05/14 00:28:16;;;;;;;2.17;1.52;;;;;;;;;;4976817;28;20522;-81
2021/05/14 00:30:41;;;;;;;3.92;1.65;;;;;;;;;;4978343;28;20038;-80
2021/05/14 00:33:06;;;;;;;3.58;1.30;;;;;;;;;;4994757;28;20038;-81
2021/05/14 00:35:32;;;;;;;2.65;1.45;;;;;;;;;;4990497;28;20042;-81
2021/05/14 00:37:58;;;;;;;3.83;1.90;;;;;;;;;;4961890;28;20026;-81
2021/05/14 00:40:23;;;;;;;2.72;1.52;;;;;;;;;;4942322;28;20072;-81
2021/05/14 00:42:49;;;;;;;2.45;1.30;;;;;;;;;;4942220;28;20126;-82
2021/05/14 00:45:14;;;;;;;4.07;1.67;;;;;;;;;;4958521;28;20057;-81
2021/05/14 00:47:40;;;;;;;2.50;1.63;;;;;;;;;;4942621;28;20432;-81
2021/05/14 00:50:06;;;;;;;4.68;1.80;;;;;;;;;;4942779;28;20038;-81
2021/05/14 00:52:31;;;;;;;2.72;1.60;;;;;;;;;;4942287;28;20117;-81
2021/05/14 00:54:57;;;;;;;2.85;1.45;;;;;;;;;;4942398;28;20047;-81
2021/05/14 00:57:22;;;;;;;3.08;1.60;;;;;;;;;;4942042;28;20413;-81
2021/05/14 00:59:48;;;;;;;3.10;1.65;;;;;;;;;;4945625;28;20034;-81
2021/05/14 01:02:14;;;;;;;2.88;1.65;;;;;;;;;;4961511;28;20049;-81
2021/05/14 01:04:39;;;;;;;3.30;1.70;;;;;;;;;;4945700;28;20038;-81
2021/05/14 01:07:05;;;;;;;3.08;1.48;;;;;;;;;;4945637;28;20034;-82
2021/05/14 01:09:31;;;;;;;3.45;1.10;;;;;;;;;;4945481;28;20034;-81
2021/05/14 01:11:56;;;;;;;2.90;1.55;;;;;;;;;;4959422;28;20042;-81
2021/05/14 01:14:22;;;;;;;2.47;1.25;;;;;;;;;;4960762;28;20129;-81
2021/05/14 01:16:47;;;;;;;1.98;1.25;;;;;;;;;;4960885;28;20448;-81
2021/05/14 01:19:13;;;;;;;3.70;1.50;;;;;;;;;;4971891;28;20478;-81
2021/05/14 01:21:38;;;;;;;2.20;1.40;;;;;;;;;;4948361;28;20409;-81
2021/05/14 01:24:04;;;;;;;2.95;1.67;;;;;;;;;;4961052;28;20038;-82
2021/05/14 01:26:30;;;;;;;2.47;1.50;;;;;;;;;;4956914;28;20043;-81
2021/05/14 01:28:55;;;;;;;3.95;1.50;;;;;;;;;;4973916;28;20090;-81
2021/05/14 01:31:21;;;;;;;2.30;1.52;;;;;;;;;;4973857;28;20035;-81
2021/05/14 01:33:47;;;;;;;2.90;1.45;;;;;;;;;;4957418;28;20090;-81
2021/05/14 01:36:12;;;;;;;2.03;1.30;;;;;;;;;;4957651;28;20110;-81
2021/05/14 01:38:38;;;;;;;2.08;1.30;;;;;;;;;;4941685;28;20047;-81
2021/05/14 01:41:03;;;;;;;2.13;1.30;;;;;;;;;;4941470;28;20039;-81
2021/05/14 01:43:29;;;;;;;2.33;1.45;;;;;;;;;;4941672;28;20034;-81
2021/05/14 01:45:54;;;;;;;3.08;1.50;;;;;;;;;;4941425;28;20042;-82
2021/05/14 01:48:20;;;;;;;2.00;1.08;;;;;;;;;;4941577;28;20061;-81
2021/05/14 01:50:45;;;;;;;2.20;1.40;;;;;;;;;;4958923;28;20046;-81
2021/05/14 01:53:11;;;;;;;2.15;1.30;;;;;;;;;;4944847;28;20043;-82
2021/05/14 01:55:37;;;;;;;2.88;1.40;;;;;;;;;;4960224;28;20444;-81
2021/05/14 01:58:02;;;;;;;3.22;1.63;;;;;;;;;;4960426;28;20033;-81
2021/05/14 02:00:28;;;;;;;3.80;1.77;;;;;;;;;;4951815;28;20715;-81
2021/05/14 02:02:53;;;;;;;2.75;1.35;;;;;;;;;;4946668;28;20040;-82
2021/05/14 02:05:19;;;;;;;1.98;1.20;;;;;;;;;;4944541;28;20149;-81
2021/05/14 02:07:44;;;;;;;2.25;1.17;;;;;;;;;;4959936;28;20073;-81
2021/05/14 02:10:10;;;;;;;2.00;1.27;;;;;;;;;;4976093;28;20417;-80
2021/05/14 02:12:35;;;;;;;2.67;1.17;;;;;;;;;;4943817;28;20408;-81
2021/05/14 02:15:04;;;;;;;2.60;1.42;;;;;;;;;;4976213;28;20048;-81
2021/05/14 02:17:30;;;;;;;2.75;1.60;;;;;;;;;;4959250;28;20553;-81
2021/05/14 02:19:57;;;;;;;1.98;1.10;;;;;;;;;;4976527;28;20121;-80
2021/05/14 02:22:23;;;;;;;2.28;1.35;;;;;;;;;;4966926;28;20437;-81
2021/05/14 02:24:50;;;;;;;2.60;1.25;;;;;;;;;;4943883;28;20065;-82
2021/05/14 02:27:16;;;;;;;2.40;1.15;;;;;;;;;;4944226;28;20034;-82
2021/05/14 02:29:42;;;;;;;3.25;1.20;;;;;;;;;;4940387;28;20082;-81
2021/05/14 02:32:07;;;;;;;2.88;1.58;;;;;;;;;;4940592;28;20035;-81
2021/05/14 02:34:33;;;;;;;2.50;1.05;;;;;;;;;;4941052;28;20045;-82
2021/05/14 02:36:58;;;;;;;2.65;1.33;;;;;;;;;;4940447;28;20058;-81
2021/05/14 02:39:24;;;;;;;3.03;1.50;;;;;;;;;;4955009;28;20120;-82
2021/05/14 02:41:49;;;;;;;2.97;1.70;;;;;;;;;;4953684;28;20043;-82
2021/05/14 02:44:15;;;;;;;3.22;1.30;;;;;;;;;;4958083;28;20050;-82
2021/05/14 02:46:41;;;;;;;2.38;1.20;;;;;;;;;;4940266;28;20494;-81
2021/05/14 02:49:06;;;;;;;2.45;1.20;;;;;;;;;;4940439;28;20042;-81
2021/05/14 02:51:32;;;;;;;2.90;1.30;;;;;;;;;;4940251;28;20068;-81
2021/05/14 02:53:57;;;;;;;2.25;1.02;;;;;;;;;;4940045;28;20413;-81
2021/05/14 02:56:23;;;;;;;2.45;1.15;;;;;;;;;;4940458;28;20727;-82
2021/05/14 02:58:48;;;;;;;2.90;1.52;;;;;;;;;;4940111;28;20108;-81
2021/05/14 03:01:14;;;;;;;2.92;1.48;;;;;;;;;;4954753;28;20046;-81
2021/05/14 03:03:39;;;;;;;2.70;1.20;;;;;;;;;;4959270;28;20042;-82
2021/05/14 03:06:05;;;;;;;2.63;1.10;;;;;;;;;;4959324;28;20042;-81
2021/05/14 03:08:30;;;;;;;1.90;1.00;;;;;;;;;;4942244;28;20042;-81
2021/05/14 03:10:56;;;;;;;2.95;1.10;;;;;;;;;;4975464;28;20093;-81
2021/05/14 03:13:21;;;;;;;2.65;1.45;;;;;;;;;;4991259;28;20100;-81
2021/05/14 03:15:47;;;;;;;3.00;1.15;;;;;;;;;;4990991;28;20117;-81
2021/05/14 03:18:12;;;;;;;2.75;1.10;;;;;;;;;;4959247;28;20033;-81
2021/05/14 03:20:38;;;;;;;2.75;1.15;;;;;;;;;;4975382;28;20179;-81
2021/05/14 03:23:03;;;;;;;1.90;1.10;;;;;;;;;;4973356;28;20055;-82
2021/05/14 03:25:28;;;;;;;3.60;1.58;;;;;;;;;;4955626;28;20043;-81
2021/05/14 03:27:54;;;;;;;1.90;0.95;;;;;;;;;;4939652;28;20046;-82
2021/05/14 03:30:20;;;;;;;1.70;0.98;;;;;;;;;;4924106;28;20035;-82
2021/05/14 03:32:45;;;;;;;1.90;0.90;;;;;;;;;;4942469;28;20130;-81
2021/05/14 03:35:11;;;;;;;3.67;1.75;;;;;;;;;;4939863;28;20031;-81
2021/05/14 03:37:37;;;;;;;2.13;1.00;;;;;;;;;;4923609;28;20096;-83
2021/05/14 03:40:15;;;;;;;2.50;1.00;;;;;;;;;;4924247;28;20069;-81
2021/05/14 03:42:40;;;;;;;1.65;1.00;;;;;;;;;;4956835;28;20451;-82
2021/05/14 03:45:06;;;;;;;2.70;1.55;;;;;;;;;;4955260;28;20038;-81
2021/05/14 03:47:32;;;;;;;1.80;0.85;;;;;;;;;;4939631;28;20038;-82
2021/05/14 03:49:58;;;;;;;2.72;0.90;;;;;;;;;;4939277;28;20031;-81
2021/05/14 03:52:24;;;;;;;2.78;0.90;;;;;;;;;;4939605;28;20500;-81
2021/05/14 03:54:49;;;;;;;2.08;1.02;;;;;;;;;;4939766;28;20078;-81
2021/05/14 03:57:15;;;;;;;1.98;0.80;;;;;;;;;;4923342;28;20616;-82
2021/05/14 03:59:40;;;;;;;2.63;0.93;;;;;;;;;;4938684;28;20031;-81
2021/05/14 04:02:06;;;;;;;2.47;1.00;;;;;;;;;;4958488;28;20046;-81
2021/05/14 04:04:31;;;;;;;2.10;1.02;;;;;;;;;;4958232;28;20031;-82
2021/05/14 04:06:59;;;;;;;1.73;0.80;;;;;;;;;;4942833;28;20069;-82
2021/05/14 04:09:36;;;;;;;2.40;0.80;;;;;;;;;;4991403;28;20035;-81
2021/05/14 04:14:27;;;;;;;2.65;0.93;;;;;;;;;;4976012;28;20038;-81
2021/05/14 04:15:03;;;;;;;2.15;1.00;;;;;;;;;;4978720;28;20150;-81
2021/05/14 04:17:28;;;;;;;1.58;1.20;;;;;;;;;;4952523;28;20053;-81
2021/05/14 04:19:54;;;;;;;2.33;1.05;;;;;;;;;;4939354;28;20034;-81
2021/05/14 04:22:19;;;;;;;2.33;1.02;;;;;;;;;;4951249;28;20048;-81
2021/05/14 04:24:45;;;;;;;2.28;0.90;;;;;;;;;;4974542;28;20177;-81
2021/05/14 04:27:10;;;;;;;4.45;1.60;;;;;;;;;;4974117;28;20410;-81
2021/05/14 04:29:37;;;;;;;1.58;0.90;;;;;;;;;;4954629;28;20090;-81
2021/05/14 04:32:02;;;;;;;1.45;0.90;;;;;;;;;;4971424;28;20073;-81
2021/05/14 04:34:28;;;;;;;1.85;0.85;;;;;;;;;;4938917;28;20113;-81
2021/05/14 04:36:54;;;;;;;3.28;1.10;;;;;;;;;;4954161;28;20050;-81
2021/05/14 04:39:19;;;;;;;2.65;1.00;;;;;;;;;;4954147;28;20122;-81
2021/05/14 04:41:44;;;;;;;2.13;1.10;;;;;;;;;;4954254;28;20421;-81
2021/05/14 04:44:10;;;;;;;2.03;0.98;;;;;;;;;;4954972;28;20548;-81
2021/05/14 04:46:35;;;;;;;2.53;1.00;;;;;;;;;;4970496;28;20456;-81
2021/05/14 04:49:01;;;;;;;2.03;1.08;;;;;;;;;;4976597;28;20077;-80
2021/05/14 04:51:28;;;;;;;2.47;1.23;;;;;;;;;;4976906;28;20026;-80
2021/05/14 04:53:53;;;;;;;2.35;0.93;;;;;;;;;;4977341;28;20117;-80
2021/05/14 04:56:19;;;;;;;2.70;1.20;;;;;;;;;;4961146;28;20497;-80
2021/05/14 04:58:44;;;;;;;2.42;1.02;;;;;;;;;;4983885;28;20084;-81
2021/05/14 05:01:13;;;;;;;1.98;1.23;;;;;;;;;;4959177;28;20057;-81
2021/05/14 05:03:38;;;;;;;1.85;0.82;;;;;;;;;;4974167;28;20034;-81
2021/05/14 05:06:04;;;;;;;2.75;1.20;;;;;;;;;;4977450;28;20432;-80
2021/05/14 05:08:30;;;;;;;1.98;1.02;;;;;;;;;;4962027;28;20038;-79
2021/05/14 05:10:56;;;;;;;3.38;1.10;;;;;;;;;;4945275;28;20412;-81
2021/05/14 05:13:21;;;;;;;2.38;0.80;;;;;;;;;;4959886;28;20109;-81
2021/05/14 05:15:47;;;;;;;2.72;0.93;;;;;;;;;;4975534;28;20416;-81
2021/05/14 05:18:12;;;;;;;1.73;0.90;;;;;;;;;;4977143;28;20404;-81
2021/05/14 05:20:37;;;;;;;1.80;1.00;;;;;;;;;;4975401;28;20031;-81
2021/05/14 05:23:03;;;;;;;2.08;0.95;;;;;;;;;;4978493;28;20432;-81
2021/05/14 05:25:28;;;;;;;2.58;1.00;;;;;;;;;;4945161;28;20478;-81
2021/05/14 05:27:54;;;;;;;4.03;1.33;;;;;;;;;;4944771;28;20389;-81
2021/05/14 05:30:21;;;;;;;2.60;1.00;;;;;;;;;;4993306;28;20370;-80
2021/05/14 05:32:47;;;;;;;2.38;1.17;;;;;;;;;;4993094;28;20049;-80
2021/05/14 05:35:12;;;;;;;1.73;0.80;;;;;;;;;;4968568;28;20042;-80
2021/05/14 05:37:39;;;;;;;2.15;0.70;;;;;;;;;;4976861;28;20034;-80
2021/05/14 05:40:05;;;;;;;2.22;0.68;;;;;;;;;;4960762;28;20053;-81
2021/05/14 05:42:30;;;;;;;2.58;1.20;;;;;;;;;;4976559;28;20061;-80
2021/05/14 05:44:56;;;;;;;2.42;1.00;;;;;;;;;;4958795;28;20410;-80
2021/05/14 05:47:21;;;;;;;2.15;1.15;;;;;;;;;;4976758;28;20050;-80
2021/05/14 05:49:47;;;;;;;4.47;0.80;;;;;;;;;;4977034;28;20030;-80
2021/05/14 05:52:13;;;;;;;1.60;0.65;;;;;;;;;;4993139;28;20043;-80
2021/05/14 05:54:39;;;;;;;4.70;1.02;;;;;;;;;;4976046;28;20069;-79
2021/05/14 05:57:04;;;;;;;3.92;1.05;;;;;;;;;;4970913;28;20064;-79
2021/05/14 05:59:30;;;;;;;6.40;1.15;;;;;;;;;;4960153;28;20408;-80
2021/05/14 06:01:56;;;;;;;4.80;1.10;;;;;;;;;;4986969;28;20041;-80
2021/05/14 06:04:23;;;;;;;2.50;0.65;;;;;;;;;;4959666;28;20527;-80
2021/05/14 06:06:48;;;;;;;3.33;1.10;;;;;;;;;;4957306;28;20031;-79
2021/05/14 06:09:14;;;;;;;1.77;0.80;;;;;;;;;;4941339;28;20046;-79
2021/05/14 06:11:39;;;;;;;2.05;0.90;;;;;;;;;;4940597;28;20513;-79
2021/05/14 06:14:05;;;;;;;2.95;1.20;;;;;;;;;;4961691;28;20042;-80
2021/05/14 06:16:30;;;;;;;2.08;0.82;;;;;;;;;;4995264;28;20408;-79
2021/05/14 06:21:43;;;;;;;4.80;1.10;;;;;;;;;;4991518;28;20068;-79
2021/05/14 06:24:09;;;;;;;1.40;0.65;;;;;;;;;;4991326;28;20046;-79
2021/05/14 06:26:34;;;;;;;2.42;1.00;;;;;;;;;;4992021;28;20420;-79
2021/05/14 06:29:00;;;;;;;3.55;0.80;;;;;;;;;;5008545;28;20042;-77
2021/05/14 06:31:25;;;;;;;2.80;0.77;;;;;;;;;;5024845;28;20524;-79
2021/05/14 06:33:50;;;;;;;1.90;0.70;;;;;;;;;;5007839;28;20425;-79
2021/05/14 06:36:16;;;;;;;2.50;0.60;;;;;;;;;;4993818;28;20405;-80
2021/05/14 06:38:41;;;;;;;2.47;0.73;;;;;;;;;;4988243;28;20039;-78
2021/05/14 06:41:11;;;;;;;2.42;0.77;;;;;;;;;;4988702;28;20106;-80
2021/05/14 06:43:40;;;;;;;1.67;0.73;;;;;;;;;;4956159;28;20101;-78
2021/05/14 06:46:06;;;;;;;2.75;0.88;;;;;;;;;;4971780;28;20034;-78
2021/05/14 06:48:32;;;;;;;2.00;0.65;;;;;;;;;;4958668;28;20026;-78
2021/05/14 06:50:57;;;;;;;5.50;1.85;;;;;;;;;;4941256;28;20417;-78
2021/05/14 06:53:24;;;;;;;5.18;0.63;;;;;;;;;;4956046;28;20070;-77
2021/05/14 06:55:50;;;;;;;4.57;0.70;;;;;;;;;;4941939;28;20085;-77
2021/05/14 06:58:15;;;;;;;1.13;0.50;;;;;;;;;;4955901;28;20070;-78
2021/05/14 07:00:41;;;;;;;2.38;1.00;;;;;;;;;;4940436;28;20038;-79
2021/05/14 07:03:06;;;;;;;1.30;0.50;;;;;;;;;;4964725;28;20046;-77
2021/05/14 07:05:32;;;;;;;1.58;0.60;;;;;;;;;;4959227;28;20045;-78
2021/05/14 07:07:57;;;;;;;3.85;0.70;;;;;;;;;;4959154;28;20042;-77
2021/05/14 07:10:23;;;;;;;2.67;0.85;;;;;;;;;;4963398;28;20416;-78
2021/05/14 07:12:50;;;;;;;1.75;0.68;;;;;;;;;;4939975;28;20042;-79
2021/05/14 07:15:15;;;;;;;2.58;0.85;;;;;;;;;;4939881;28;20041;-78
2021/05/14 07:17:41;;;;;;;2.17;0.98;;;;;;;;;;4949489;28;20035;-78
2021/05/14 07:20:07;;;;;;;2.17;1.35;;;;;;;;;;4966452;28;20045;-78
2021/05/14 07:22:33;;;;;;;1.83;1.00;;;;;;;;;;4972039;28;20037;-78
2021/05/14 07:24:59;;;;;;;1.90;0.93;;;;;;;;;;4958101;28;20464;-78
2021/05/14 07:27:24;;;;;;;1.83;0.88;;;;;;;;;;4965063;28;20058;-78
2021/05/14 07:29:50;;;;;;;0.98;0.40;;;;;;;;;;4974912;28;20034;-78
2021/05/14 07:32:15;;;;;;;1.45;0.50;;;;;;;;;;4974814;28;20042;-79
2021/05/14 07:34:41;;;;;;;1.38;0.65;;;;;;;;;;4975198;28;20385;-78
2021/05/14 07:37:06;;;;;;;1.70;0.55;;;;;;;;;;4972895;28;20034;-79
2021/05/14 07:39:34;;;;;;;2.65;0.65;;;;;;;;;;4970399;28;20113;-78
2021/05/14 07:42:03;;;;;;;1.40;0.50;;;;;;;;;;4974988;28;20101;-78
2021/05/14 07:44:29;;;;;;;1.23;0.77;;;;;;;;;;4990714;28;20097;-78
2021/05/14 07:46:54;;;;;;;1.23;0.63;;;;;;;;;;4977974;28;20133;-78
2021/05/14 07:49:20;;;;;;;1.45;0.60;;;;;;;;;;4994268;28;20034;-78
2021/05/14 07:51:45;;;;;;;3.17;0.80;;;;;;;;;;4994008;28;20502;-79
2021/05/14 07:54:10;;;;;;;1.45;0.60;;;;;;;;;;4977733;28;20054;-78
2021/05/14 07:56:37;;;;;;;2.00;0.73;;;;;;;;;;4974153;28;20428;-78
2021/05/14 07:59:02;;;;;;;1.95;0.75;;;;;;;;;;4956656;28;20038;-79
2021/05/14 08:01:28;;;;;;;1.60;0.60;;;;;;;;;;4973127;28;20118;-78
2021/05/14 08:03:54;;;;;;;1.35;0.63;;;;;;;;;;4973342;28;20305;-78
2021/05/14 08:06:19;;;;;;;1.17;0.40;;;;;;;;;;4974002;28;20520;-78
2021/05/14 08:08:45;;;;;;;2.38;0.40;;;;;;;;;;4990332;28;20089;-79
2021/05/14 08:11:11;;;;;;;1.27;0.40;;;;;;;;;;4990323;28;20059;-78
2021/05/14 08:13:36;;;;;;;1.75;0.52;;;;;;;;;;4973823;28;20046;-79
2021/05/14 08:16:04;;;;;;;1.33;0.45;;;;;;;;;;4971065;28;20033;-79
2021/05/14 08:18:29;;;;;;;1.70;0.57;;;;;;;;;;4960914;28;20093;-79
2021/05/14 08:20:55;;;;;;;2.85;0.50;;;;;;;;;;4990591;28;20401;-78
2021/05/14 08:23:21;;;;;;;1.10;0.47;;;;;;;;;;4977202;28;20213;-79
2021/05/14 08:25:47;;;;;;;3.30;0.90;;;;;;;;;;4977256;28;20475;-78
2021/05/14 08:28:13;;;;;;;4.30;1.08;;;;;;;;;;4958972;28;20073;-79
2021/05/14 08:30:39;;;;;;;5.63;4.35;;;;;;;;;;4943209;28;20451;-79
2021/05/14 08:33:05;;;;;;;5.15;1.75;;;;;;;;;;4959387;28;20051;-78
2021/05/14 08:35:30;;;;;;;4.80;2.75;;;;;;;;;;4963648;28;20525;-79
2021/05/14 08:37:55;;;;;;;4.10;1.42;;;;;;;;;;4942540;28;20043;-78
2021/05/14 08:40:21;;;;;;;5.70;1.10;;;;;;;;;;4975957;28;20120;-78
2021/05/14 08:42:46;;;;;;;2.42;0.85;;;;;;;;;;4973895;28;20046;-77
2021/05/14 08:45:13;;;;;;;3.08;1.58;;;;;;;;;;4976073;28;20031;-79
2021/05/14 08:47:38;;;;;;;5.35;0.88;;;;;;;;;;4993803;28;20041;-78
2021/05/14 08:50:05;;;;;;;1.98;0.63;;;;;;;;;;4992861;28;20420;-77
2021/05/14 08:52:33;;;;;;;5.85;0.70;;;;;;;;;;4991009;28;20053;-77
2021/05/14 08:55:00;;;;;;;6.32;1.33;;;;;;;;;;4974984;28;20809;-77
2021/05/14 08:57:25;;;;;;;4.13;1.20;;;;;;;;;;4973068;28;20042;-78
2021/05/14 08:59:51;;;;;;;6.20;3.60;;;;;;;;;;4976978;28;20135;-78
2021/05/14 09:02:17;;;;;;;11.23;3.75;;;;;;;;;;4960981;28;20142;-76
2021/05/14 09:04:42;;;;;;;5.43;2.85;;;;;;;;;;4977299;28;20489;-77
2021/05/14 09:07:19;;;;;;;3.17;1.48;;;;;;;;;;4957516;28;20166;-78
2021/05/14 09:10:07;;;;;;;3.65;1.13;;;;;;;;;;4981951;28;20037;-78
2021/05/14 09:12:36;;;;;;;1.83;0.52;;;;;;;;;;4989765;28;20042;-78
2021/05/14 09:15:36;;;;;;;2.28;0.60;;;;;;;;;;4977487;28;20042;-78
2021/05/14 09:18:09;;;;;;;2.85;1.10;;;;;;;;;;4978928;28;20049;-78
2021/05/14 09:20:39;;;;;;;1.00;0.50;;;;;;;;;;4961728;28;20089;-78
2021/05/14 09:23:20;;;;;;;1.88;0.50;;;;;;;;;;4975464;28;20038;-78
2021/05/14 09:25:52;;;;;;;2.03;0.40;;;;;;;;;;4957827;28;20047;-78
2021/05/14 09:28:22;;;;;;;1.33;0.52;;;;;;;;;;4992839;28;20071;-78
2021/05/14 09:31:04;;;;;;;2.53;0.68;;;;;;;;;;4989614;28;20097;-78
2021/05/14 09:33:29;;;;;;;2.72;0.93;;;;;;;;;;4989036;28;20035;-78
2021/05/14 09:35:58;;;;;;;2.85;0.70;;;;;;;;;;4957413;28;20030;-78
2021/05/14 09:38:24;;;;;;;2.95;1.33;;;;;;;;;;4974618;28;20209;-78
2021/05/14 09:40:51;;;;;;;2.78;1.60;;;;;;;;;;4961504;28;20038;-78
2021/05/14 09:43:18;;;;;;;6.80;4.28;;;;;;;;;;4976220;28;20527;-79
2021/05/14 09:45:43;;;;;;;5.22;2.63;;;;;;;;;;4976616;28;20104;-78
2021/05/14 09:48:16;;;;;;;3.17;1.45;;;;;;;;;;4976313;28;20038;-78
2021/05/14 09:50:42;;;;;;;4.43;2.35;;;;;;;;;;4977351;28;20050;-78
2021/05/14 09:53:12;;;;;;;2.50;1.17;;;;;;;;;;4992324;28;20097;-79
2021/05/14 09:55:40;;;;;;;4.40;2.75;;;;;;;;;;4992685;28;20038;-78
2021/05/14 09:58:20;;;;;;;3.63;1.52;;;;;;;;;;4975708;28;20038;-78
2021/05/14 10:00:46;;;;;;;2.88;1.27;;;;;;;;;;4988455;28;20592;-79
2021/05/14 10:03:14;;;;;;;2.72;1.50;;;;;;;;;;4992501;28;20096;-78
2021/05/14 10:05:40;;;;;;;3.00;1.10;;;;;;;;;;4975712;28;20096;-78
2021/05/14 10:08:06;;;;;;;3.58;2.03;;;;;;;;;;4991018;28;20046;-78
2021/05/14 10:10:33;;;;;;;3.40;1.60;;;;;;;;;;4959968;28;20420;-77
2021/05/14 10:12:58;;;;;;;3.03;0.80;;;;;;;;;;4976115;28;20038;-77
2021/05/14 10:15:25;;;;;;;2.30;0.65;;;;;;;;;;4972258;28;20190;-78
2021/05/14 10:17:51;;;;;;;3.70;1.50;;;;;;;;;;4975900;28;20143;-77
2021/05/14 10:20:24;;;;;;;2.15;0.60;;;;;;;;;;4970662;28;20039;-78
2021/05/14 10:22:51;;;;;;;4.63;0.52;;;;;;;;;;4952488;28;20162;-77
2021/05/14 10:25:38;;;;;;;0.60;0.20;;;;;;;;;;4963318;28;20071;-77
2021/05/14 10:28:08;;;;;;;1.23;0.30;;;;;;;;;;4991183;28;20038;-78
2021/05/14 10:30:33;;;;;;;0.82;0.20;;;;;;;;;;4960635;28;20030;-78
2021/05/14 10:32:59;;;;;;;0.88;0.28;;;;;;;;;;4974814;28;20035;-77
2021/05/14 10:35:33;;;;;;;3.42;0.85;;;;;;;;;;4952057;28;20038;-77
2021/05/14 10:38:08;;;;;;;0.90;0.50;;;;;;;;;;4949199;28;20539;-78
2021/05/14 10:40:33;;;;;;;1.88;0.30;;;;;;;;;;4958825;28;20069;-77
2021/05/14 10:43:06;;;;;;;0.38;0.10;;;;;;;;;;4971848;28;20114;-77
2021/05/14 10:45:45;;;;;;;1.30;0.52;;;;;;;;;;4987465;28;20050;-77
2021/05/14 10:48:18;;;;;;;1.30;0.20;;;;;;;;;;4963561;28;20034;-77
2021/05/14 10:51:06;;;;;;;1.65;0.30;;;;;;;;;;4970766;28;20124;-77
2021/05/14 10:53:45;;;;;;;0.43;0.17;;;;;;;;;;4968912;28;20114;-77
2021/05/14 10:56:11;;;;;;;1.15;0.20;;;;;;;;;;4977022;28;20124;-77
2021/05/14 10:58:46;;;;;;;1.73;0.30;;;;;;;;;;4990917;28;20038;-78
2021/05/14 11:01:49;;;;;;;1.33;0.35;;;;;;;;;;4975690;28;20042;-78
2021/05/14 11:04:14;;;;;;;;;;;;;;;;;;4984514;28;20085;-77
2021/05/14 11:06:48;;;;;;;1.88;0.63;;;;;;;;;;4993342;28;20341;-78
2021/05/14 11:09:13;;;;;;;3.40;0.35;;;;;;;;;;4995679;28;20030;-79
2021/05/14 11:11:58;;;;;;;0.90;0.30;;;;;;;;;;4975205;28;20558;-79
2021/05/14 11:14:24;;;;;;;2.17;0.35;;;;;;;;;;4975408;28;20424;-79
2021/05/14 11:16:53;;;;;;;3.03;0.60;;;;;;;;;;4975080;28;20030;-79
2021/05/14 11:19:24;;;;;;;2.05;0.50;;;;;;;;;;4956307;28;20027;-78
2021/05/14 11:22:13;;;;;;;2.45;0.30;;;;;;;;;;5009579;28;20461;-78
2021/05/14 11:24:41;;;;;;;3.05;0.88;;;;;;;;;;4973905;28;20121;-78
2021/05/14 11:27:11;;;;;;;2.03;0.30;;;;;;;;;;4990885;28;20046;-78
2021/05/14 11:29:42;;;;;;;3.00;0.32;;;;;;;;;;4991451;28;20042;-78
2021/05/14 11:32:44;;;;;;;1.57;0.50;;;;;;;;;;5006740;28;20045;-78
2021/05/14 11:35:19;;;;;;;2.33;0.40;;;;;;;;;;4992894;28;20038;-78
2021/05/14 11:37:56;;;;;;;2.47;0.43;;;;;;;;;;5007521;28;20038;-78
2021/05/14 11:40:23;;;;;;;2.90;0.40;;;;;;;;;;4974783;28;20076;-78
2021/05/14 11:43:02;;;;;;;1.80;0.50;;;;;;;;;;4990526;28;20035;-77
2021/05/14 11:45:37;;;;;;;2.00;0.25;;;;;;;;;;4991011;28;20444;-77
2021/05/14 11:48:20;;;;;;;2.50;0.50;;;;;;;;;;4959060;28;20033;-78
2021/05/14 11:50:47;;;;;;;1.20;0.20;;;;;;;;;;4975204;28;20065;-77
2021/05/14 11:53:13;;;;;;;2.13;0.25;;;;;;;;;;4974593;28;20049;-77
2021/05/14 11:55:40;;;;;;;1.25;0.40;;;;;;;;;;4991225;28;20042;-78
2021/05/14 11:58:07;;;;;;;1.73;0.35;;;;;;;;;;4993804;28;20042;-78
2021/05/14 12:00:35;;;;;;;2.00;0.20;;;;;;;;;;4978757;28;20045;-77
2021/05/14 12:03:05;;;;;;;1.27;0.20;;;;;;;;;;4991541;28;20519;-78
2021/05/14 12:05:31;;;;;;;1.73;0.57;;;;;;;;;;4960296;28;20480;-78
2021/05/14 12:08:19;;;;;;;1.88;0.30;;;;;;;;;;4975435;28;20034;-78
2021/05/14 12:10:52;;;;;;;1.33;0.30;;;;;;;;;;4960527;28;20034;-78
2021/05/14 12:13:22;;;;;;;0.65;0.20;;;;;;;;;;4975979;28;20035;-78
2021/05/14 12:15:56;;;;;;;1.33;0.30;;;;;;;;;;4958954;28;20414;-78
2021/05/14 12:18:21;;;;;;;1.10;0.40;;;;;;;;;;4959701;28;20058;-78
2021/05/14 12:20:47;;;;;;;1.33;0.40;;;;;;;;;;4975277;28;20417;-77
2021/05/14 12:23:13;;;;;;;2.55;0.40;;;;;;;;;;4993590;28;20050;-78
2021/05/14 12:25:56;;;;;;;2.65;0.30;;;;;;;;;;4978133;28;20057;-77
2021/05/14 12:28:34;;;;;;;1.13;0.30;;;;;;;;;;4959401;28;20073;-77
2021/05/14 12:31:04;;;;;;;1.02;0.30;;;;;;;;;;4943240;28;20042;-78
2021/05/14 12:33:29;;;;;;;1.55;0.30;;;;;;;;;;4942800;28;20042;-77
2021/05/14 12:36:00;;;;;;;1.95;0.45;;;;;;;;;;4954161;28;20039;-77
2021/05/14 12:38:45;;;;;;;1.20;0.32;;;;;;;;;;4978190;28;20057;-78
2021/05/14 12:41:21;;;;;;;0.98;0.30;;;;;;;;;;4977667;28;20038;-77
2021/05/14 12:43:46;;;;;;;0.77;0.20;;;;;;;;;;4977919;28;20133;-77
2021/05/14 12:46:12;;;;;;;1.55;0.20;;;;;;;;;;4993682;28;20061;-77
2021/05/14 12:48:37;;;;;;;1.92;0.20;;;;;;;;;;4978266;28;20038;-78
2021/05/14 12:51:03;;;;;;;1.45;0.20;;;;;;;;;;4977926;28;20042;-77
2021/05/14 12:53:29;;;;;;;0.88;0.22;;;;;;;;;;4977617;28;20034;-78
2021/05/14 12:55:54;;;;;;;0.30;0.10;;;;;;;;;;4977468;28;20050;-78
2021/05/14 12:58:20;;;;;;;0.60;0.25;;;;;;;;;;4993795;28;20042;-78
2021/05/14 13:00:45;;;;;;;1.15;0.40;;;;;;;;;;4978003;28;20452;-78
2021/05/14 13:03:11;;;;;;;1.15;0.28;;;;;;;;;;4993689;28;20459;-77
2021/05/14 13:05:47;;;;;;;2.60;0.20;;;;;;;;;;4977767;28;20532;-78
2021/05/14 13:08:13;;;;;;;0.80;0.10;;;;;;;;;;4976790;28;20057;-77
2021/05/14 13:10:49;;;;;;;1.35;0.20;;;;;;;;;;4977523;28;20515;-78
2021/05/14 13:13:20;;;;;;;1.15;0.30;;;;;;;;;;4961803;28;20057;-77
2021/05/14 13:15:46;;;;;;;1.00;0.30;;;;;;;;;;4976842;28;20057;-78
2021/05/14 13:18:47;;;;;;;0.90;0.22;;;;;;;;;;4977614;28;20602;-77
2021/05/14 13:21:14;;;;;;;1.02;0.20;;;;;;;;;;4937965;29;20083;-78
2021/05/14 13:23:40;;;;;;;2.90;1.08;;;;;;;;;;4965322;28;20050;-77
2021/05/14 13:26:05;;;;;;;0.75;0.20;;;;;;;;;;5013094;28;20043;-78
2021/05/14 13:28:31;;;;;;;0.82;0.22;;;;;;;;;;4957722;28;20509;-77
2021/05/14 13:30:56;;;;;;;0.85;0.20;;;;;;;;;;4973559;28;20405;-77
2021/05/14 13:33:22;;;;;;;2.05;0.30;;;;;;;;;;4989845;28;20161;-77
2021/05/14 13:35:47;;;;;;;1.65;0.35;;;;;;;;;;4993371;28;20124;-77
2021/05/14 13:38:13;;;;;;;0.63;0.22;;;;;;;;;;4977158;28;20044;-78
2021/05/14 13:40:38;;;;;;;1.85;0.28;;;;;;;;;;4993088;28;20472;-77
2021/05/14 13:43:04;;;;;;;0.60;0.10;;;;;;;;;;5009263;28;20112;-77
2021/05/14 13:45:30;;;;;;;0.90;0.38;;;;;;;;;;4992630;28;20039;-77
2021/05/14 13:47:55;;;;;;;0.60;0.20;;;;;;;;;;4976938;28;20052;-77
2021/05/14 13:50:21;;;;;;;0.70;0.17;;;;;;;;;;4993034;28;20042;-77
2021/05/14 13:52:46;;;;;;;0.50;0.20;;;;;;;;;;4993041;28;20544;-77
2021/05/14 13:55:12;;;;;;;0.82;0.40;;;;;;;;;;4993208;28;20070;-77
2021/05/14 13:57:37;;;;;;;0.65;0.30;;;;;;;;;;4976687;28;20042;-77
2021/05/14 14:00:04;;;;;;;0.65;0.20;;;;;;;;;;4976557;28;20489;-78
2021/05/14 14:02:29;;;;;;;0.77;0.28;;;;;;;;;;4976629;28;20034;-77
2021/05/14 14:04:55;;;;;;;1.25;0.30;;;;;;;;;;4944406;28;20064;-77
2021/05/14 14:07:20;;;;;;;0.63;0.22;;;;;;;;;;4976359;28;20042;-77
2021/05/14 14:09:45;;;;;;;1.63;0.50;;;;;;;;;;4976651;28;20046;-77
2021/05/14 14:12:11;;;;;;;1.17;0.17;;;;;;;;;;4959902;28;20398;-77
2021/05/14 14:14:36;;;;;;;1.48;0.30;;;;;;;;;;4960206;28;20061;-77
2021/05/14 14:17:02;;;;;;;0.60;0.20;;;;;;;;;;4976385;28;20088;-77
2021/05/14 14:19:27;;;;;;;0.60;0.30;;;;;;;;;;4976027;28;20404;-77
2021/05/14 14:21:53;;;;;;;2.47;0.30;;;;;;;;;;4957605;28;20042;-78
2021/05/14 14:24:18;;;;;;;0.95;0.32;;;;;;;;;;4976193;28;20398;-78
2021/05/14 14:26:44;;;;;;;0.93;0.40;;;;;;;;;;4976117;28;20500;-78
2021/05/14 14:29:10;;;;;;;1.75;0.45;;;;;;;;;;4959588;28;20039;-77
2021/05/14 14:31:35;;;;;;;0.90;0.30;;;;;;;;;;4975825;28;20034;-77
2021/05/14 14:34:01;;;;;;;0.70;0.30;;;;;;;;;;4976223;28;20105;-78
2021/05/14 14:36:27;;;;;;;1.60;0.30;;;;;;;;;;4944582;28;20097;-77
2021/05/14 14:38:52;;;;;;;0.95;0.35;;;;;;;;;;4956773;28;20114;-78
2021/05/14 14:41:18;;;;;;;1.17;0.50;;;;;;;;;;4940679;28;20070;-77
2021/05/14 14:43:43;;;;;;;0.85;0.20;;;;;;;;;;4972380;28;20054;-78
2021/05/14 14:46:08;;;;;;;0.88;0.28;;;;;;;;;;4972092;28;20415;-77
2021/05/14 14:48:34;;;;;;;1.95;0.30;;;;;;;;;;4972801;28;20416;-77